createdAt,value
2018-08-19T00:02:19.945Z,101854.20
2018-08-19T00:05:03.069Z,101848.13
2018-08-19T00:07:30.317Z,101851.03
2018-08-19T00:09:58.119Z,101852.24
2018-08-19T00:12:36.202Z,101854.55
2018-08-19T00:15:04.578Z,101851.98
2018-08-19T00:17:32.045Z,101856.16
2018-08-19T00:19:59.345Z,101851.40
2018-08-19T00:22:26.641Z,101847.09
2018-08-19T00:24:54.021Z,101848.44
2018-08-19T00:27:21.703Z,101843.22
2018-08-19T00:29:49.860Z,101844.56
2018-08-19T00:32:17.142Z,101841.16
2018-08-19T00:34:45.754Z,101839.34
2018-08-19T00:37:13.123Z,101840.33
2018-08-19T00:39:40.760Z,101838.81
2018-08-19T00:42:08.165Z,101843.87
2018-08-19T00:44:35.645Z,101843.59
2018-08-19T00:47:03.263Z,101840.41
2018-08-19T00:49:30.552Z,101836.25
2018-08-19T00:51:59.001Z,101834.34
2018-08-19T00:54:27.592Z,101836.25
2018-08-19T00:56:55.875Z,101836.91
2018-08-19T00:59:23.462Z,101830.31
2018-08-19T01:01:50.796Z,101827.14
2018-08-19T01:04:18.212Z,101830.22
2018-08-19T01:06:51.423Z,101834.94
2018-08-19T01:09:19.425Z,101832.78
2018-08-19T01:11:47.452Z,101825.38
2018-08-19T01:14:15.480Z,101829.81
2018-08-19T01:16:42.852Z,101834.02
2018-08-19T01:19:10.985Z,101834.13
2018-08-19T01:21:38.442Z,101831.36
2018-08-19T01:24:11.334Z,101828.46
2018-08-19T01:26:40.858Z,101825.94
2018-08-19T01:29:09.620Z,101827.80
2018-08-19T01:31:37.415Z,101827.33
2018-08-19T01:34:10.136Z,101831.06
2018-08-19T01:36:37.793Z,101820.23
2018-08-19T01:39:07.133Z,101825.91
2018-08-19T01:41:35.749Z,101824.88
2018-08-19T01:44:06.790Z,101832.83
2018-08-19T01:46:36.398Z,101832.67
2018-08-19T01:49:03.800Z,101827.27
2018-08-19T01:51:31.524Z,101817.45
2018-08-19T01:54:04.360Z,101819.51
2018-08-19T01:56:31.765Z,101822.03
2018-08-19T01:58:59.835Z,101818.77
2018-08-19T02:01:40.926Z,101817.83
2018-08-19T02:04:08.505Z,101816.66
2018-08-19T02:06:36.035Z,101809.41
2018-08-19T02:09:04.608Z,101810.03
2018-08-19T02:11:32.322Z,101810.40
2018-08-19T02:14:00.420Z,101806.20
2018-08-19T02:16:28.085Z,101804.40
2018-08-19T02:18:55.723Z,101798.66
2018-08-19T02:21:23.615Z,101802.06
2018-08-19T02:23:51.141Z,101798.00
2018-08-19T02:26:23.772Z,101793.09
2018-08-19T02:28:51.385Z,101788.02
2018-08-19T02:31:18.623Z,101786.33
2018-08-19T02:33:45.927Z,101793.31
2018-08-19T02:36:14.124Z,101791.45
2018-08-19T02:38:41.679Z,101789.41
2018-08-19T02:41:09.018Z,101786.95
2018-08-19T02:43:44.111Z,101787.47
2018-08-19T02:46:11.536Z,101782.20
2018-08-19T02:48:46.745Z,101781.21
2018-08-19T02:51:15.344Z,101783.92
2018-08-19T02:53:44.600Z,101778.36
2018-08-19T02:56:12.622Z,101784.58
2018-08-19T02:58:41.301Z,101782.42
2018-08-19T03:01:08.840Z,101774.33
2018-08-19T03:03:36.446Z,101772.47
2018-08-19T03:06:04.417Z,101775.69
2018-08-19T03:08:32.084Z,101770.27
2018-08-19T03:11:00.471Z,101773.13
2018-08-19T03:13:27.877Z,101771.45
2018-08-19T03:15:56.264Z,101767.57
2018-08-19T03:18:23.932Z,101770.46
2018-08-19T03:20:51.289Z,101766.03
2018-08-19T03:23:18.626Z,101760.15
2018-08-19T03:25:45.917Z,101760.15
2018-08-19T03:28:13.245Z,101764.53
2018-08-19T03:30:47.046Z,101762.08
2018-08-19T03:33:14.357Z,101755.53
2018-08-19T03:35:42.393Z,101756.16
2018-08-19T03:38:12.919Z,101754.47
2018-08-19T03:40:40.237Z,101762.92
2018-08-19T03:43:08.081Z,101757.55
2018-08-19T03:45:35.331Z,101757.73
2018-08-19T03:48:02.657Z,101755.05
2018-08-19T03:50:30.079Z,101751.84
2018-08-19T03:52:57.393Z,101749.47
2018-08-19T03:55:26.951Z,101757.40
2018-08-19T03:57:58.124Z,101753.02
2018-08-19T04:00:26.664Z,101752.10
2018-08-19T04:02:54.143Z,101759.11
2018-08-19T04:05:38.451Z,101754.18
2018-08-19T04:08:06.729Z,101755.42
2018-08-19T04:10:34.108Z,101753.19
2018-08-19T04:13:01.400Z,101753.73
2018-08-19T04:15:29.343Z,101751.00
2018-08-19T04:17:56.605Z,101746.43
2018-08-19T04:20:23.946Z,101752.17
2018-08-19T04:22:51.237Z,101746.28
2018-08-19T04:25:23.085Z,101745.29
2018-08-19T04:27:50.479Z,101748.33
2018-08-19T04:30:17.859Z,101739.41
2018-08-19T04:32:45.146Z,101742.29
2018-08-19T04:35:12.904Z,101738.68
2018-08-19T04:37:40.202Z,101738.74
2018-08-19T04:40:07.621Z,101745.80
2018-08-19T04:42:34.936Z,101742.59
2018-08-19T04:45:02.237Z,101748.21
2018-08-19T04:47:31.445Z,101742.59
2018-08-19T04:49:58.863Z,101739.70
2018-08-19T04:52:26.287Z,101737.72
2018-08-19T04:54:54.968Z,101730.30
2018-08-19T04:57:22.667Z,101737.06
2018-08-19T04:59:50.076Z,101742.65
2018-08-19T05:02:18.226Z,101732.76
2018-08-19T05:04:45.467Z,101733.09
2018-08-19T05:07:13.445Z,101732.50
2018-08-19T05:09:40.987Z,101736.19
2018-08-19T05:12:08.475Z,101736.70
2018-08-19T05:14:36.007Z,101731.92
2018-08-19T05:17:03.266Z,101733.75
2018-08-19T05:19:30.594Z,101743.55
2018-08-19T05:22:03.861Z,101749.13
2018-08-19T05:24:31.996Z,101745.73
2018-08-19T05:27:04.249Z,101747.05
2018-08-19T05:29:31.773Z,101746.58
2018-08-19T05:31:59.084Z,101745.88
2018-08-19T05:34:32.838Z,101741.17
2018-08-19T05:37:00.571Z,101738.39
2018-08-19T05:39:28.527Z,101743.04
2018-08-19T05:42:08.956Z,101741.54
2018-08-19T05:44:37.652Z,101740.44
2018-08-19T05:47:08.968Z,101745.04
2018-08-19T05:49:37.710Z,101746.11
2018-08-19T05:52:11.085Z,101743.04
2018-08-19T05:54:44.555Z,101741.50
2018-08-19T05:57:12.245Z,101733.02
2018-08-19T05:59:39.697Z,101734.73
2018-08-19T06:02:07.016Z,101740.11
2018-08-19T06:04:34.816Z,101738.86
2018-08-19T06:07:04.706Z,101735.61
2018-08-19T06:09:33.008Z,101736.98
2018-08-19T06:12:00.986Z,101738.09
2018-08-19T06:14:28.562Z,101736.29
2018-08-19T06:16:55.897Z,101737.60
2018-08-19T06:19:23.227Z,101737.09
2018-08-19T06:21:50.890Z,101735.55
2018-08-19T06:24:19.487Z,101736.77
2018-08-19T06:26:46.810Z,101738.95
2018-08-19T06:29:14.115Z,101738.73
2018-08-19T06:31:41.419Z,101738.98
2018-08-19T06:34:08.720Z,101743.86
2018-08-19T06:36:36.240Z,101735.05
2018-08-19T06:39:04.397Z,101735.20
2018-08-19T06:41:31.957Z,101742.20
2018-08-19T06:43:59.271Z,101743.02
2018-08-19T06:46:26.553Z,101750.87
2018-08-19T06:48:54.067Z,101747.57
2018-08-19T06:51:21.370Z,101746.73
2018-08-19T06:53:48.656Z,101747.10
2018-08-19T06:56:16.066Z,101755.09
2018-08-19T06:58:43.309Z,101747.84
2018-08-19T07:01:10.746Z,101739.07
2018-08-19T07:03:42.880Z,101745.31
2018-08-19T07:06:10.824Z,101747.55
2018-08-19T07:08:38.099Z,101750.30
2018-08-19T07:11:05.558Z,101745.36
2018-08-19T07:13:32.845Z,101739.90
2018-08-19T07:16:00.340Z,101747.92
2018-08-19T07:18:27.587Z,101753.67
2018-08-19T07:20:55.002Z,101750.58
2018-08-19T07:23:22.365Z,101749.88
2018-08-19T07:25:49.631Z,101754.74
2018-08-19T07:28:17.638Z,101745.45
2018-08-19T07:30:45.289Z,101743.57
2018-08-19T07:33:13.110Z,101743.20
2018-08-19T07:35:40.514Z,101746.19
2018-08-19T07:38:08.502Z,101742.64
2018-08-19T07:40:35.807Z,101740.69
2018-08-19T07:43:03.061Z,101737.23
2018-08-19T07:45:30.696Z,101737.70
2018-08-19T07:47:58.100Z,101733.03
2018-08-19T07:50:25.723Z,101731.82
2018-08-19T07:52:53.602Z,101734.08
2018-08-19T07:55:21.022Z,101724.35
2018-08-19T07:57:48.530Z,101729.58
2018-08-19T08:00:16.928Z,101727.02
2018-08-19T08:02:44.286Z,101732.58
2018-08-19T08:05:11.590Z,101732.25
2018-08-19T08:07:44.757Z,101731.13
2018-08-19T08:10:12.073Z,101729.73
2018-08-19T08:12:39.444Z,101734.39
2018-08-19T08:15:07.126Z,101725.99
2018-08-19T08:17:34.694Z,101730.89
2018-08-19T08:20:03.044Z,101734.06
2018-08-19T08:22:31.121Z,101734.86
2018-08-19T08:24:58.632Z,101738.65
2018-08-19T08:27:26.248Z,101736.78
2018-08-19T08:29:53.705Z,101738.45
2018-08-19T08:32:21.761Z,101735.37
2018-08-19T08:34:49.520Z,101732.59
2018-08-19T08:37:16.972Z,101731.34
2018-08-19T08:39:44.348Z,101735.52
2018-08-19T08:42:11.988Z,101727.08
2018-08-19T08:44:39.279Z,101729.47
2018-08-19T08:47:09.342Z,101731.72
2018-08-19T08:49:42.254Z,101721.32
2018-08-19T08:52:30.154Z,101717.65
2018-08-19T08:55:00.092Z,101716.84
2018-08-19T08:57:27.456Z,101724.14
2018-08-19T08:59:54.966Z,101724.47
2018-08-19T09:02:22.497Z,101723.38
2018-08-19T09:04:50.958Z,101726.86
2018-08-19T09:07:18.550Z,101721.20
2018-08-19T09:09:46.557Z,101722.34
2018-08-19T09:12:14.503Z,101720.66
2018-08-19T09:14:42.569Z,101716.09
2018-08-19T09:17:10.254Z,101714.50
2018-08-19T09:19:37.899Z,101712.33
2018-08-19T09:22:05.406Z,101702.31
2018-08-19T09:24:32.721Z,101706.91
2018-08-19T09:27:00.066Z,101703.93
2018-08-19T09:29:27.542Z,101709.33
2018-08-19T09:31:55.225Z,101708.93
2018-08-19T09:34:22.821Z,101708.77
2018-08-19T09:36:50.386Z,101700.05
2018-08-19T09:39:18.432Z,101700.59
2018-08-19T09:41:45.934Z,101701.57
2018-08-19T09:44:13.340Z,101698.65
2018-08-19T09:46:40.793Z,101695.73
2018-08-19T09:49:08.515Z,101705.48
2018-08-19T09:51:35.881Z,101700.36
2018-08-19T09:54:03.326Z,101694.81
2018-08-19T09:56:36.441Z,101697.20
2018-08-19T09:59:05.034Z,101700.67
2018-08-19T10:01:38.062Z,101693.91
2018-08-19T10:04:09.011Z,101685.63
2018-08-19T10:06:36.444Z,101693.37
2018-08-19T10:09:06.203Z,101683.14
2018-08-19T10:11:33.538Z,101676.11
2018-08-19T10:14:03.474Z,101674.35
2018-08-19T10:16:39.529Z,101669.25
2018-08-19T10:19:06.856Z,101670.05
2018-08-19T10:21:34.473Z,101679.17
2018-08-19T10:24:12.034Z,101679.91
2018-08-19T10:26:39.416Z,101679.27
2018-08-19T10:29:06.973Z,101668.20
2018-08-19T10:31:34.307Z,101671.72
2018-08-19T10:34:01.682Z,101671.61
2018-08-19T10:36:29.081Z,101663.76
2018-08-19T10:38:56.493Z,101669.63
2018-08-19T10:41:23.917Z,101671.19
2018-08-19T10:43:51.218Z,101657.63
2018-08-19T10:46:18.672Z,101671.23
2018-08-19T10:48:46.017Z,101668.49
2018-08-19T10:51:13.413Z,101666.53
2018-08-19T10:53:42.589Z,101670.98
2018-08-19T10:56:09.903Z,101660.03
2018-08-19T10:58:39.491Z,101664.11
2018-08-19T11:01:06.912Z,101655.43
2018-08-19T11:03:36.259Z,101653.41
2018-08-19T11:06:03.725Z,101658.47
2018-08-19T11:08:31.150Z,101660.53
2018-08-19T11:10:58.851Z,101656.75
2018-08-19T11:13:26.290Z,101659.28
2018-08-19T11:15:54.970Z,101660.31
2018-08-19T11:18:25.727Z,101653.31
2018-08-19T11:20:55.902Z,101652.05
2018-08-19T11:23:24.390Z,101658.68
2018-08-19T11:25:52.685Z,101653.50
2018-08-19T11:28:32.007Z,101652.36
2018-08-19T11:30:59.297Z,101657.70
2018-08-19T11:33:37.981Z,101663.36
2018-08-19T11:36:05.554Z,101660.53
2018-08-19T11:38:32.963Z,101655.30
2018-08-19T11:41:02.300Z,101662.21
2018-08-19T11:43:29.834Z,101659.10
2018-08-19T11:45:57.401Z,101661.58
2018-08-19T11:48:24.798Z,101651.63
2018-08-19T11:53:18.990Z,101640.42
2018-08-19T11:55:47.015Z,101639.05
2018-08-19T11:58:30.679Z,101636.98
2018-08-19T12:01:00.405Z,101638.80
2018-08-19T12:03:28.427Z,101632.29
2018-08-19T12:05:55.881Z,101636.02
2018-08-19T12:08:23.418Z,101643.05
2018-08-19T12:10:55.647Z,101632.52
2018-08-19T12:13:24.115Z,101637.98
2018-08-19T12:15:51.470Z,101637.76
2018-08-19T12:18:18.824Z,101636.91
2018-08-19T12:20:46.269Z,101647.07
2018-08-19T12:23:13.603Z,101636.31
2018-08-19T12:25:41.171Z,101631.36
2018-08-19T12:28:08.646Z,101625.79
2018-08-19T12:30:35.994Z,101624.03
2018-08-19T12:33:14.524Z,101626.91
2018-08-19T12:35:41.923Z,101629.53
2018-08-19T12:38:09.309Z,101621.66
2018-08-19T12:40:41.402Z,101611.56
2018-08-19T12:43:08.879Z,101623.95
2018-08-19T12:45:36.445Z,101624.77
2018-08-19T12:48:03.802Z,101618.97
2018-08-19T12:50:31.238Z,101625.17
2018-08-19T12:52:58.654Z,101616.99
2018-08-19T12:55:26.269Z,101606.38
2018-08-19T12:58:01.983Z,101611.93
2018-08-19T13:00:29.818Z,101609.65
2018-08-19T13:02:57.393Z,101595.95
2018-08-19T13:05:24.973Z,101596.06
2018-08-19T13:07:52.716Z,101597.50
2018-08-19T13:10:21.299Z,101595.55
2018-08-19T13:12:56.014Z,101596.55
2018-08-19T13:15:24.749Z,101599.77
2018-08-19T13:17:52.463Z,101593.74
2018-08-19T13:20:19.827Z,101591.48
2018-08-19T13:23:04.443Z,101599.61
2018-08-19T13:25:33.130Z,101600.14
2018-08-19T13:28:00.538Z,101592.66
2018-08-19T13:30:28.078Z,101587.28
2018-08-19T13:32:55.464Z,101594.89
2018-08-19T13:35:23.376Z,101586.41
2018-08-19T13:37:51.239Z,101581.55
2018-08-19T13:40:18.631Z,101588.76
2018-08-19T13:42:47.275Z,101580.12
2018-08-19T13:45:17.596Z,101582.13
2018-08-19T13:47:46.211Z,101581.88
2018-08-19T13:50:13.769Z,101577.86
2018-08-19T13:52:41.716Z,101569.12
2018-08-19T13:55:11.403Z,101571.93
2018-08-19T13:57:38.910Z,101575.28
2018-08-19T14:00:12.403Z,101572.61
2018-08-19T14:02:39.805Z,101571.77
2018-08-19T14:05:07.719Z,101568.41
2018-08-19T14:07:35.284Z,101568.98
2018-08-19T14:10:02.776Z,101565.86
2018-08-19T14:12:30.169Z,101560.62
2018-08-19T14:14:57.903Z,101565.83
2018-08-19T14:17:25.781Z,101569.17
2018-08-19T14:19:53.936Z,101561.32
2018-08-19T14:22:21.570Z,101559.48
2018-08-19T14:24:49.182Z,101562.04
2018-08-19T14:27:16.587Z,101557.66
2018-08-19T14:29:44.506Z,101562.95
2018-08-19T14:32:27.586Z,101561.91
2018-08-19T14:34:55.012Z,101558.43
2018-08-19T14:37:23.122Z,101556.47
2018-08-19T14:39:50.819Z,101558.05
2018-08-19T14:42:18.255Z,101554.61
2018-08-19T14:44:46.644Z,101561.02
2018-08-19T14:47:14.246Z,101569.72
2018-08-19T14:49:41.932Z,101560.38
2018-08-19T14:52:10.224Z,101570.45
2018-08-19T14:54:38.394Z,101571.94
2018-08-19T14:57:05.838Z,101567.42
2018-08-19T14:59:33.401Z,101570.38
2018-08-19T15:02:00.745Z,101573.01
2018-08-19T15:04:28.114Z,101571.31
2018-08-19T15:06:56.204Z,101569.65
2018-08-19T15:09:30.162Z,101570.48
2018-08-19T15:12:08.170Z,101580.71
2018-08-19T15:14:35.537Z,101577.99
2018-08-19T15:17:04.966Z,101577.45
2018-08-19T15:19:32.489Z,101577.31
2018-08-19T15:21:59.864Z,101583.30
2018-08-19T15:24:27.572Z,101579.16
2018-08-19T15:26:55.760Z,101577.13
2018-08-19T15:29:28.221Z,101574.45
2018-08-19T15:31:57.052Z,101583.12
2018-08-19T15:34:25.940Z,101584.69
2018-08-19T15:36:54.162Z,101574.95
2018-08-19T15:39:21.825Z,101575.79
2018-08-19T15:41:49.542Z,101577.89
2018-08-19T15:44:17.329Z,101571.09
2018-08-19T15:46:45.883Z,101581.34
2018-08-19T15:49:13.481Z,101584.81
2018-08-19T15:51:41.996Z,101579.36
2018-08-19T15:54:10.429Z,101577.34
2018-08-19T15:56:39.053Z,101571.42
2018-08-19T15:59:09.795Z,101576.93
2018-08-19T16:01:37.966Z,101570.69
2018-08-19T16:04:12.817Z,101574.97
2018-08-19T16:06:41.272Z,101574.14
2018-08-19T16:09:11.237Z,101566.17
2018-08-19T16:11:38.557Z,101563.98
2018-08-19T16:14:13.931Z,101570.16
2018-08-19T16:16:41.316Z,101559.48
2018-08-19T16:19:10.821Z,101565.13
2018-08-19T16:21:38.894Z,101564.19
2018-08-19T16:24:06.935Z,101553.73
2018-08-19T16:26:34.670Z,101561.39
2018-08-19T16:29:02.339Z,101560.64
2018-08-19T16:31:30.835Z,101558.44
2018-08-19T16:33:59.283Z,101562.43
2018-08-19T16:36:27.099Z,101556.14
2018-08-19T16:38:55.345Z,101555.70
2018-08-19T16:41:24.603Z,101554.80
2018-08-19T16:43:52.969Z,101557.52
2018-08-19T16:46:21.305Z,101561.68
2018-08-19T16:48:49.994Z,101559.16
2018-08-19T16:51:17.843Z,101557.59
2018-08-19T16:53:45.309Z,101547.88
2018-08-19T16:56:13.009Z,101551.13
2018-08-19T16:58:41.300Z,101551.32
2018-08-19T17:01:09.540Z,101567.53
2018-08-19T17:03:38.260Z,101556.42
2018-08-19T17:06:10.051Z,101542.47
2018-08-19T17:08:37.826Z,101547.23
2018-08-19T17:11:05.598Z,101545.94
2018-08-19T17:13:32.955Z,101543.80
2018-08-19T17:16:01.021Z,101554.81
2018-08-19T17:18:30.636Z,101546.02
2018-08-19T17:20:58.570Z,101550.01
2018-08-19T17:23:26.275Z,101538.34
2018-08-19T17:25:53.572Z,101538.80
2018-08-19T17:28:23.126Z,101546.11
2018-08-19T17:30:52.614Z,101543.48
2018-08-19T17:33:28.115Z,101537.51
2018-08-19T17:35:55.673Z,101536.27
2018-08-19T17:38:23.081Z,101536.15
2018-08-19T17:40:52.171Z,101531.89
2018-08-19T17:43:27.414Z,101545.27
2018-08-19T17:45:59.741Z,101541.92
2018-08-19T17:48:27.088Z,101531.19
2018-08-19T17:50:56.216Z,101533.06
2018-08-19T17:53:23.838Z,101535.37
2018-08-19T17:55:51.520Z,101534.06
2018-08-19T17:58:18.838Z,101531.87
2018-08-19T18:00:46.535Z,101509.33
2018-08-19T18:03:14.473Z,101496.12
2018-08-19T18:05:42.092Z,101499.39
2018-08-19T18:08:09.742Z,101509.98
2018-08-19T18:10:37.795Z,101516.59
2018-08-19T18:13:05.706Z,101504.59
2018-08-19T18:15:33.737Z,101510.45
2018-08-19T18:18:05.318Z,101508.02
2018-08-19T18:20:37.472Z,101501.67
2018-08-19T18:23:12.872Z,101504.16
2018-08-19T18:25:41.317Z,101499.24
2018-08-19T18:28:27.656Z,101498.23
2018-08-19T18:31:14.366Z,101505.91
2018-08-19T18:33:48.119Z,101500.48
2018-08-19T18:36:15.696Z,101506.74
2018-08-19T18:38:43.392Z,101509.45
2018-08-19T18:41:18.016Z,101523.86
2018-08-19T18:43:48.387Z,101514.36
2018-08-19T18:46:15.759Z,101517.84
2018-08-19T18:48:44.894Z,101521.59
2018-08-19T18:51:12.536Z,101514.22
2018-08-19T18:53:40.179Z,101523.03
2018-08-19T18:56:07.948Z,101515.85
2018-08-19T18:58:35.779Z,101523.55
2018-08-19T19:01:03.479Z,101514.49
2018-08-19T19:03:31.321Z,101522.82
2018-08-19T19:05:59.036Z,101519.79
2018-08-19T19:08:26.339Z,101525.30
2018-08-19T19:11:00.324Z,101523.79
2018-08-19T19:13:28.596Z,101520.55
2018-08-19T19:15:56.148Z,101523.83
2018-08-19T19:18:24.392Z,101525.91
2018-08-19T19:20:57.555Z,101521.39
2018-08-19T19:23:29.575Z,101517.48
2018-08-19T19:25:57.245Z,101521.71
2018-08-19T19:28:24.704Z,101520.04
2018-08-19T19:31:00.896Z,101522.70
2018-08-19T19:33:28.873Z,101529.02
2018-08-19T19:36:02.417Z,101520.31
2018-08-19T19:38:30.256Z,101520.67
2018-08-19T19:41:02.189Z,101519.39
2018-08-19T19:43:30.379Z,101524.31
2018-08-19T19:45:57.959Z,101522.35
2018-08-19T19:48:25.879Z,101523.03
2018-08-19T19:50:53.192Z,101522.83
2018-08-19T19:53:20.797Z,101527.09
2018-08-19T19:55:48.191Z,101523.59
2018-08-19T19:58:15.711Z,101522.10
2018-08-19T20:00:53.663Z,101526.38
2018-08-19T20:03:22.086Z,101522.10
2018-08-19T20:05:50.729Z,101523.98
2018-08-19T20:08:22.613Z,101523.47
2018-08-19T20:10:50.625Z,101519.08
2018-08-19T20:13:18.240Z,101528.61
2018-08-19T20:15:45.983Z,101525.34
2018-08-19T20:18:13.452Z,101524.94
2018-08-19T20:20:40.981Z,101536.11
2018-08-19T20:23:25.619Z,101534.87
2018-08-19T20:25:55.442Z,101535.63
2018-08-19T20:28:23.022Z,101534.36
2018-08-19T20:30:50.544Z,101530.20
2018-08-19T20:33:25.713Z,101531.03
2018-08-19T20:35:53.555Z,101534.03
2018-08-19T20:38:21.362Z,101534.59
2018-08-19T20:40:49.047Z,101538.34
2018-08-19T20:43:20.217Z,101536.06
2018-08-19T20:45:47.726Z,101539.38
2018-08-19T20:48:17.603Z,101535.75
2018-08-19T20:50:45.826Z,101539.73
2018-08-19T20:53:13.307Z,101535.31
2018-08-19T20:55:40.706Z,101535.78
2018-08-19T20:58:08.027Z,101541.41
2018-08-19T21:00:35.816Z,101536.18
2018-08-19T21:03:03.367Z,101531.16
2018-08-19T21:05:30.943Z,101529.52
2018-08-19T21:08:04.520Z,101530.55
2018-08-19T21:10:31.825Z,101527.52
2018-08-19T21:12:59.635Z,101530.63
2018-08-19T21:15:32.166Z,101538.58
2018-08-19T21:18:00.612Z,101536.38
2018-08-19T21:20:28.073Z,101526.68
2018-08-19T21:22:55.532Z,101530.11
2018-08-19T21:25:22.893Z,101531.39
2018-08-19T21:27:50.491Z,101531.16
2018-08-19T21:30:17.908Z,101533.47
2018-08-19T21:32:45.547Z,101530.95
2018-08-19T21:35:13.872Z,101527.11
2018-08-19T21:37:41.296Z,101529.11
2018-08-19T21:40:08.817Z,101530.78
2018-08-19T21:42:48.515Z,101533.17
2018-08-19T21:45:15.835Z,101535.89
2018-08-19T21:47:43.125Z,101538.61
2018-08-19T21:50:10.531Z,101532.66
2018-08-19T21:53:17.586Z,101536.53
2018-08-19T21:55:46.178Z,101538.29
2018-08-19T21:58:13.636Z,101547.91
2018-08-19T22:00:44.042Z,101552.37
2018-08-19T22:03:20.727Z,101550.30
2018-08-19T22:05:49.390Z,101548.95
2018-08-19T22:08:17.970Z,101548.42
2018-08-19T22:10:46.663Z,101545.71
2018-08-19T22:13:14.107Z,101545.19
2018-08-19T22:15:42.592Z,101541.64
2018-08-19T22:18:12.889Z,101552.70
2018-08-19T22:20:50.597Z,101552.53
2018-08-19T22:23:17.988Z,101557.81
2018-08-19T22:25:45.480Z,101553.02
2018-08-19T22:28:13.794Z,101548.74
2018-08-19T22:30:41.145Z,101555.21
2018-08-19T22:33:08.518Z,101554.05
2018-08-19T22:35:35.907Z,101548.63
2018-08-19T22:38:07.533Z,101556.45
2018-08-19T22:40:36.755Z,101553.42
2018-08-19T22:43:04.741Z,101557.29
2018-08-19T22:45:32.097Z,101553.66
2018-08-19T22:47:59.534Z,101557.84
2018-08-19T22:50:27.643Z,101555.22
2018-08-19T22:52:54.977Z,101552.98
2018-08-19T22:55:29.591Z,101553.73
2018-08-19T22:58:13.914Z,101550.10
2018-08-19T23:00:42.100Z,101557.61
2018-08-19T23:03:09.491Z,101558.85
2018-08-19T23:05:36.985Z,101555.73
2018-08-19T23:08:04.645Z,101544.16
2018-08-19T23:10:32.012Z,101545.83
2018-08-19T23:13:05.698Z,101543.40
2018-08-19T23:15:40.055Z,101541.52
2018-08-19T23:18:07.468Z,101551.78
2018-08-19T23:20:34.840Z,101547.98
2018-08-19T23:23:02.286Z,101539.77
2018-08-19T23:25:29.847Z,101533.73
2018-08-19T23:27:57.223Z,101534.97
2018-08-19T23:30:24.665Z,101535.28
2018-08-19T23:32:52.867Z,101531.73
2018-08-19T23:35:20.342Z,101530.48
2018-08-19T23:37:47.697Z,101525.98
2018-08-19T23:40:15.121Z,101523.59
2018-08-19T23:42:42.795Z,101522.23
2018-08-19T23:45:10.225Z,101513.39
2018-08-19T23:47:37.627Z,101514.42
2018-08-19T23:50:05.376Z,101510.88
2018-08-19T23:52:32.680Z,101508.16
2018-08-19T23:55:00.019Z,101507.30
2018-08-19T23:57:28.072Z,101505.13
2018-08-19T23:59:55.477Z,101505.02
